createdAt,value
2018-12-11T00:02:20.067Z,11.27
2018-12-11T00:04:49.000Z,11.03
2018-12-11T00:07:17.944Z,9.50
2018-12-11T00:09:46.885Z,9.70
2018-12-11T00:12:15.776Z,9.73
2018-12-11T00:14:44.659Z,10.57
2018-12-11T00:17:13.578Z,9.27
2018-12-11T00:19:42.515Z,12.60
2018-12-11T00:22:11.411Z,14.50
2018-12-11T00:24:40.323Z,15.67
2018-12-11T00:27:09.227Z,11.17
2018-12-11T00:29:38.210Z,9.30
2018-12-11T00:32:07.114Z,16.17
2018-12-11T00:34:35.998Z,9.53
2018-12-11T00:37:04.911Z,11.83
2018-12-11T00:39:33.834Z,10.47
2018-12-11T00:42:02.754Z,11.18
2018-12-11T00:44:31.664Z,11.00
2018-12-11T00:47:00.558Z,11.87
2018-12-11T00:49:29.473Z,9.30
2018-12-11T00:51:58.437Z,14.23
2018-12-11T00:54:27.299Z,12.17
2018-12-11T00:56:56.162Z,10.47
2018-12-11T00:59:25.069Z,7.70
2018-12-11T01:01:53.976Z,10.80
2018-12-11T01:04:22.905Z,7.93
2018-12-11T01:06:51.858Z,9.30
2018-12-11T01:09:20.777Z,9.63
2018-12-11T01:11:49.748Z,10.30
2018-12-11T01:14:18.626Z,14.13
2018-12-11T01:16:47.500Z,8.90
2018-12-11T01:19:16.476Z,9.60
2018-12-11T01:21:45.291Z,7.23
2018-12-11T01:24:14.216Z,14.33
2018-12-11T01:26:43.093Z,7.43
2018-12-11T01:29:11.995Z,8.37
2018-12-11T01:31:40.903Z,8.10
2018-12-11T01:34:09.832Z,8.60
2018-12-11T01:36:39.120Z,10.73
2018-12-11T01:39:09.388Z,10.23
2018-12-11T01:41:38.330Z,13.57
2018-12-11T01:44:07.266Z,10.30
2018-12-11T01:46:36.594Z,10.57
2018-12-11T01:49:05.088Z,11.27
2018-12-11T01:51:34.014Z,10.20
2018-12-11T01:54:02.903Z,12.50
2018-12-11T01:56:31.813Z,12.20
2018-12-11T01:59:00.691Z,14.73
2018-12-11T02:01:29.649Z,12.20
2018-12-11T02:03:58.477Z,9.60
2018-12-11T02:06:27.384Z,13.23
2018-12-11T02:08:56.259Z,11.70
2018-12-11T02:11:25.147Z,10.13
2018-12-11T02:13:54.101Z,16.73
2018-12-11T02:16:23.026Z,10.43
2018-12-11T02:18:52.004Z,16.42
2018-12-11T02:21:20.949Z,13.60
2018-12-11T02:23:49.866Z,12.80
2018-12-11T02:26:18.776Z,7.77
2018-12-11T02:28:47.666Z,15.28
2018-12-11T02:31:16.591Z,8.90
2018-12-11T02:33:45.470Z,6.07
2018-12-11T02:36:14.345Z,7.73
2018-12-11T02:38:43.256Z,7.80
2018-12-11T02:41:12.142Z,7.93
2018-12-11T02:43:41.083Z,13.90
2018-12-11T02:46:09.956Z,11.97
2018-12-11T02:48:38.856Z,10.27
2018-12-11T02:51:07.738Z,5.73
2018-12-11T02:53:36.668Z,10.60
2018-12-11T02:56:05.625Z,5.70
2018-12-11T02:58:34.576Z,13.48
2018-12-11T03:01:03.481Z,12.53
2018-12-11T03:03:32.429Z,13.20
2018-12-11T03:06:01.335Z,8.47
2018-12-11T03:08:30.264Z,13.73
2018-12-11T03:10:59.157Z,12.23
2018-12-11T03:13:28.077Z,11.13
2018-12-11T03:15:56.993Z,10.93
2018-12-11T03:18:25.919Z,11.30
2018-12-11T03:20:54.806Z,10.40
2018-12-11T03:23:23.718Z,15.37
2018-12-11T03:25:52.591Z,11.63
2018-12-11T03:28:21.527Z,14.40
2018-12-11T03:30:50.417Z,13.00
2018-12-11T03:33:19.285Z,15.80
2018-12-11T03:35:48.200Z,11.33
2018-12-11T03:38:17.088Z,15.10
2018-12-11T03:40:46.006Z,11.03
2018-12-11T03:43:14.885Z,13.70
2018-12-11T03:45:43.781Z,11.80
2018-12-11T03:48:12.672Z,7.27
2018-12-11T03:50:41.582Z,9.40
2018-12-11T03:53:10.548Z,11.03
2018-12-11T03:55:39.378Z,9.50
2018-12-11T03:58:08.310Z,6.20
2018-12-11T04:00:37.181Z,14.93
2018-12-11T04:03:06.159Z,6.67
2018-12-11T04:05:35.109Z,12.30
2018-12-11T04:08:04.027Z,6.80
2018-12-11T04:10:32.919Z,11.53
2018-12-11T04:13:01.822Z,12.53
2018-12-11T04:15:30.748Z,13.10
2018-12-11T04:17:59.652Z,10.17
2018-12-11T04:20:28.625Z,11.63
2018-12-11T04:22:57.545Z,13.43
2018-12-11T04:25:26.480Z,9.37
2018-12-11T04:27:55.366Z,10.10
2018-12-11T04:30:24.288Z,8.00
2018-12-11T04:32:53.188Z,8.33
2018-12-11T04:35:22.108Z,7.70
2018-12-11T04:37:51.053Z,9.00
2018-12-11T04:40:19.948Z,10.87
2018-12-11T04:42:48.872Z,11.17
2018-12-11T04:45:17.780Z,9.30
2018-12-11T04:47:46.684Z,8.70
2018-12-11T04:50:15.591Z,10.53
2018-12-11T04:52:44.530Z,9.10
2018-12-11T04:55:13.447Z,10.00
2018-12-11T04:57:42.345Z,7.27
2018-12-11T05:00:11.298Z,11.57
2018-12-11T05:02:40.209Z,7.07
2018-12-11T05:05:09.179Z,10.80
2018-12-11T05:07:38.083Z,9.40
2018-12-11T05:10:07.813Z,8.17
2018-12-11T05:12:36.722Z,7.17
2018-12-11T05:15:05.999Z,12.43
2018-12-11T05:17:34.886Z,9.97
2018-12-11T05:20:03.861Z,7.87
2018-12-11T05:22:32.788Z,9.77
2018-12-11T05:25:01.691Z,6.30
2018-12-11T05:27:30.617Z,9.73
2018-12-11T05:29:59.511Z,9.67
2018-12-11T05:32:28.398Z,6.33
2018-12-11T05:34:57.333Z,8.47
2018-12-11T05:37:26.227Z,12.00
2018-12-11T05:39:55.127Z,12.53
2018-12-11T05:42:24.040Z,6.33
2018-12-11T05:44:52.937Z,9.33
2018-12-11T05:47:21.884Z,8.70
2018-12-11T05:49:50.737Z,10.23
2018-12-11T05:52:19.631Z,9.50
2018-12-11T05:54:48.540Z,13.33
2018-12-11T05:57:17.481Z,9.00
2018-12-11T05:59:46.380Z,6.03
2018-12-11T06:02:15.345Z,11.60
2018-12-11T06:04:44.208Z,9.33
2018-12-11T06:07:13.102Z,11.03
2018-12-11T06:09:42.018Z,10.50
2018-12-11T06:12:10.963Z,10.50
2018-12-11T06:14:39.874Z,8.13
2018-12-11T06:17:08.805Z,8.90
2018-12-11T06:19:37.754Z,10.40
2018-12-11T06:22:06.659Z,12.43
2018-12-11T06:24:35.585Z,10.33
2018-12-11T06:27:04.528Z,5.60
2018-12-11T06:29:33.451Z,8.67
2018-12-11T06:32:02.336Z,10.17
2018-12-11T06:34:31.240Z,8.30
2018-12-11T06:37:00.156Z,9.90
2018-12-11T06:39:29.052Z,7.80
2018-12-11T06:41:57.956Z,6.77
2018-12-11T06:44:26.840Z,12.70
2018-12-11T06:46:55.749Z,7.60
2018-12-11T06:49:24.643Z,10.97
2018-12-11T06:51:53.559Z,11.97
2018-12-11T06:54:22.469Z,7.37
2018-12-11T06:56:51.364Z,7.20
2018-12-11T06:59:20.282Z,9.60
2018-12-11T07:01:49.170Z,9.47
2018-12-11T07:04:18.109Z,9.63
2018-12-11T07:06:47.005Z,7.40
2018-12-11T07:09:15.910Z,6.93
2018-12-11T07:11:44.896Z,11.03
2018-12-11T07:14:13.850Z,11.43
2018-12-11T07:16:42.764Z,5.23
2018-12-11T07:19:11.666Z,8.90
2018-12-11T07:21:40.556Z,10.63
2018-12-11T07:24:09.553Z,7.97
2018-12-11T07:26:38.475Z,8.17
2018-12-11T07:29:07.443Z,10.10
2018-12-11T07:31:36.349Z,6.90
2018-12-11T07:34:05.356Z,5.03
2018-12-11T07:36:34.321Z,7.73
2018-12-11T07:39:04.147Z,8.13
2018-12-11T07:41:33.030Z,8.47
2018-12-11T07:44:01.934Z,5.87
2018-12-11T07:46:30.855Z,5.03
2018-12-11T07:48:59.780Z,6.90
2018-12-11T07:51:28.708Z,9.80
2018-12-11T07:53:57.624Z,6.03
2018-12-11T07:56:26.524Z,6.57
2018-12-11T07:58:55.540Z,9.00
2018-12-11T08:01:24.499Z,7.53
2018-12-11T08:03:53.404Z,17.10
2018-12-11T08:06:22.335Z,10.10
2018-12-11T08:08:51.252Z,15.90
2018-12-11T08:11:20.143Z,19.20
2018-12-11T08:13:49.123Z,10.63
2018-12-11T08:16:18.183Z,8.63
2018-12-11T08:18:47.105Z,13.00
2018-12-11T08:21:16.505Z,10.63
2018-12-11T08:23:46.280Z,8.53
2018-12-11T08:26:15.120Z,7.33
2018-12-11T08:28:44.032Z,7.87
2018-12-11T08:31:12.979Z,8.33
2018-12-11T08:33:41.923Z,8.17
2018-12-11T08:36:10.879Z,6.17
2018-12-11T08:38:49.934Z,8.17
2018-12-11T08:41:22.457Z,10.63
2018-12-11T08:43:52.801Z,8.30
2018-12-11T08:46:25.217Z,5.80
2018-12-11T08:48:57.536Z,9.10
2018-12-11T08:51:27.149Z,5.27
2018-12-11T08:53:56.663Z,10.13
2018-12-11T08:56:34.013Z,9.57
2018-12-11T08:59:06.585Z,8.30
2018-12-11T09:01:35.430Z,10.78
2018-12-11T09:04:08.542Z,11.38
2018-12-11T09:06:40.647Z,7.37
2018-12-11T09:09:13.213Z,8.03
2018-12-11T09:11:50.632Z,7.17
2018-12-11T09:14:26.598Z,6.77
2018-12-11T09:17:09.905Z,7.97
2018-12-11T09:19:41.191Z,6.33
2018-12-11T09:22:10.722Z,6.37
2018-12-11T09:24:43.575Z,6.20
2018-12-11T09:27:18.493Z,4.20
2018-12-11T09:29:58.054Z,7.60
2018-12-11T09:32:25.528Z,9.37
2018-12-11T09:34:57.619Z,6.23
2018-12-11T09:37:26.909Z,7.43
2018-12-11T09:40:02.294Z,7.73
2018-12-11T09:42:33.160Z,8.63
2018-12-11T09:45:06.644Z,5.40
2018-12-11T09:47:38.163Z,7.73
2018-12-11T09:50:08.945Z,8.75
2018-12-11T09:52:47.584Z,7.33
2018-12-11T09:55:23.098Z,8.03
2018-12-11T09:57:52.184Z,8.17
2018-12-11T10:00:27.266Z,5.70
2018-12-11T10:02:54.031Z,6.53
2018-12-11T10:05:26.688Z,9.27
2018-12-11T10:08:00.209Z,6.50
2018-12-11T10:10:31.126Z,5.23
2018-12-11T10:13:06.892Z,6.73
2018-12-11T10:15:36.451Z,6.00
2018-12-11T10:18:08.774Z,4.80
2018-12-11T10:20:47.896Z,8.80
2018-12-11T10:23:20.426Z,5.72
2018-12-11T10:25:50.177Z,5.80
2018-12-11T10:28:30.443Z,7.17
2018-12-11T10:31:03.941Z,8.13
2018-12-11T10:33:43.561Z,3.95
2018-12-11T10:36:13.269Z,5.20
2018-12-11T10:38:42.786Z,8.85
2018-12-11T10:41:15.271Z,3.85
2018-12-11T10:43:44.666Z,7.90
2018-12-11T10:46:16.058Z,5.73
2018-12-11T10:48:48.513Z,8.27
2018-12-11T10:51:23.500Z,5.63
2018-12-11T10:53:53.019Z,7.60
2018-12-11T10:56:27.404Z,6.28
2018-12-11T10:58:54.994Z,4.67
2018-12-11T11:01:35.740Z,7.50
2018-12-11T11:04:12.255Z,5.33
2018-12-11T11:06:46.324Z,8.10
2018-12-11T11:09:14.140Z,5.07
2018-12-11T11:11:43.739Z,8.40
2018-12-11T11:14:12.932Z,8.10
2018-12-11T11:16:42.392Z,4.97
2018-12-11T11:19:15.058Z,5.63
2018-12-11T11:21:41.530Z,5.93
2018-12-11T11:24:13.728Z,6.20
2018-12-11T11:26:45.277Z,4.77
2018-12-11T11:29:15.221Z,10.03
2018-12-11T11:31:44.319Z,7.13
2018-12-11T11:34:16.426Z,9.20
2018-12-11T11:36:48.542Z,6.10
2018-12-11T11:39:20.336Z,11.43
2018-12-11T11:41:49.762Z,7.80
2018-12-11T11:44:22.218Z,8.63
2018-12-11T11:46:51.605Z,6.70
2018-12-11T11:49:21.100Z,10.10
2018-12-11T11:51:50.667Z,8.53
2018-12-11T11:54:20.177Z,9.07
2018-12-11T11:56:49.920Z,5.70
2018-12-11T11:59:22.323Z,6.07
2018-12-11T12:01:56.797Z,8.73
2018-12-11T12:04:28.878Z,9.37
2018-12-11T12:07:06.533Z,8.93
2018-12-11T12:09:38.137Z,8.57
2018-12-11T12:12:07.427Z,8.20
2018-12-11T12:14:39.047Z,7.93
2018-12-11T12:17:11.463Z,10.87
2018-12-11T12:19:43.945Z,8.30
2018-12-11T12:22:14.948Z,7.97
2018-12-11T12:24:44.678Z,7.37
2018-12-11T12:27:16.159Z,10.50
2018-12-11T12:29:49.212Z,8.83
2018-12-11T12:32:26.197Z,5.47
2018-12-11T12:34:56.564Z,9.00
2018-12-11T12:37:33.163Z,5.63
2018-12-11T12:40:04.903Z,10.17
2018-12-11T12:42:36.951Z,9.07
2018-12-11T12:45:06.864Z,10.20
2018-12-11T12:47:36.377Z,9.57
2018-12-11T12:50:09.186Z,11.60
2018-12-11T12:52:38.565Z,12.23
2018-12-11T12:55:08.623Z,6.07
2018-12-11T12:57:42.715Z,10.30
2018-12-11T13:00:17.755Z,6.77
2018-12-11T13:02:50.096Z,9.10
2018-12-11T13:05:19.154Z,9.67
2018-12-11T13:07:49.016Z,9.07
2018-12-11T13:10:18.518Z,10.13
2018-12-11T13:12:52.054Z,6.60
2018-12-11T13:15:23.084Z,6.23
2018-12-11T13:17:53.048Z,5.27
2018-12-11T13:20:24.738Z,9.53
2018-12-11T13:22:54.481Z,8.10
2018-12-11T13:25:26.431Z,4.97
2018-12-11T13:28:00.814Z,6.13
2018-12-11T13:30:37.405Z,10.30
2018-12-11T13:33:10.210Z,18.80
2018-12-11T13:35:39.677Z,3.67
2018-12-11T13:38:11.733Z,6.37
2018-12-11T13:40:44.116Z,7.13
2018-12-11T13:43:16.008Z,7.57
2018-12-11T13:45:51.624Z,7.70
2018-12-11T13:48:23.981Z,12.03
2018-12-11T13:50:56.243Z,5.80
2018-12-11T13:53:30.792Z,9.20
2018-12-11T13:56:02.092Z,8.23
2018-12-11T13:58:33.072Z,7.47
2018-12-11T14:01:02.588Z,8.07
2018-12-11T14:03:36.919Z,8.97
2018-12-11T14:06:04.085Z,10.53
2018-12-11T14:08:36.138Z,6.80
2018-12-11T14:11:08.505Z,10.73
2018-12-11T14:13:40.881Z,10.10
2018-12-11T14:16:13.633Z,6.67
2018-12-11T14:18:46.223Z,7.97
2018-12-11T14:21:15.426Z,5.43
2018-12-11T14:23:45.027Z,13.87
2018-12-11T14:26:16.912Z,9.50
2018-12-11T14:28:44.602Z,11.33
2018-12-11T14:31:17.051Z,6.00
2018-12-11T14:33:47.027Z,7.30
2018-12-11T14:36:16.661Z,11.10
2018-12-11T14:38:50.614Z,8.00
2018-12-11T14:41:19.990Z,9.90
2018-12-11T14:43:49.278Z,7.93
2018-12-11T14:46:19.385Z,8.10
2018-12-11T14:48:48.754Z,7.83
2018-12-11T14:51:22.880Z,8.37
2018-12-11T14:53:55.869Z,6.57
2018-12-11T14:56:22.522Z,7.07
2018-12-11T14:58:52.167Z,8.70
2018-12-11T15:01:24.817Z,11.70
2018-12-11T15:03:57.042Z,11.67
2018-12-11T15:06:36.167Z,9.20
2018-12-11T15:09:21.722Z,8.90
2018-12-11T15:12:01.891Z,11.55
2018-12-11T15:14:35.804Z,6.57
2018-12-11T15:17:05.887Z,12.88
2018-12-11T15:19:42.833Z,8.53
2018-12-11T15:22:14.561Z,8.50
2018-12-11T15:24:57.554Z,9.63
2018-12-11T15:27:31.630Z,10.50
2018-12-11T15:30:13.929Z,6.70
2018-12-11T15:32:53.920Z,6.90
2018-12-11T15:36:07.051Z,8.03
2018-12-11T15:38:16.443Z,6.77
2018-12-11T15:41:01.536Z,12.40
2018-12-11T15:43:42.190Z,9.13
2018-12-11T15:46:28.677Z,13.30
2018-12-11T15:49:05.917Z,8.60
2018-12-11T15:51:36.548Z,10.70
2018-12-11T15:54:06.811Z,7.10
2018-12-11T15:56:39.249Z,8.73
2018-12-11T15:59:08.691Z,11.15
2018-12-11T16:01:45.561Z,12.90
2018-12-11T16:04:15.149Z,11.70
2018-12-11T16:06:47.155Z,10.87
2018-12-11T16:09:16.626Z,11.07
2018-12-11T16:11:46.268Z,18.97
2018-12-11T16:14:15.787Z,11.77
2018-12-11T16:16:48.463Z,11.80
2018-12-11T16:19:38.445Z,9.53
2018-12-11T16:22:08.157Z,7.60
2018-12-11T16:24:45.096Z,8.90
2018-12-11T16:27:15.471Z,12.95
2018-12-11T16:29:47.267Z,8.40
2018-12-11T16:32:26.557Z,8.57
2018-12-11T16:35:02.465Z,10.40
2018-12-11T16:37:42.983Z,10.33
2018-12-11T16:40:13.588Z,12.07
2018-12-11T16:42:40.679Z,5.80
2018-12-11T16:45:10.133Z,16.83
2018-12-11T16:47:39.521Z,11.67
2018-12-11T16:50:15.066Z,11.13
2018-12-11T16:52:41.982Z,12.90
2018-12-11T16:55:21.682Z,10.23
2018-12-11T16:57:52.465Z,15.53
2018-12-11T17:00:22.357Z,8.77
2018-12-11T17:02:51.998Z,12.03
2018-12-11T17:05:25.315Z,7.17
2018-12-11T17:07:55.653Z,8.40
2018-12-11T17:10:25.288Z,7.20
2018-12-11T17:12:54.778Z,11.63
2018-12-11T17:15:28.214Z,9.07
2018-12-11T17:21:35.016Z,8.40
2018-12-11T17:24:06.901Z,9.47
2018-12-11T17:26:40.780Z,9.20
2018-12-11T17:29:12.564Z,9.63
2018-12-11T17:31:52.428Z,12.57
2018-12-11T17:34:20.628Z,7.20
2018-12-11T17:36:51.339Z,8.10
2018-12-11T17:39:23.311Z,11.07
2018-12-11T17:41:53.204Z,8.20
2018-12-11T17:44:22.731Z,11.53
2018-12-11T17:46:53.925Z,9.00
2018-12-11T17:49:28.451Z,7.27
2018-12-11T17:52:05.527Z,8.93
2018-12-11T17:54:37.177Z,9.87
2018-12-11T17:57:07.053Z,11.70
2018-12-11T17:59:39.725Z,8.50
2018-12-11T18:02:13.986Z,10.53
2018-12-11T18:04:48.700Z,8.37
2018-12-11T18:07:19.975Z,8.93
2018-12-11T18:10:01.015Z,9.87
2018-12-11T18:12:30.836Z,8.00
2018-12-11T18:15:00.257Z,9.30
2018-12-11T18:17:32.973Z,7.77
2018-12-11T18:20:02.199Z,9.17
2018-12-11T18:22:39.419Z,7.30
2018-12-11T18:25:10.940Z,11.93
2018-12-11T18:27:42.493Z,9.90
2018-12-11T18:30:15.475Z,14.63
2018-12-11T18:32:48.628Z,6.90
2018-12-11T18:35:27.922Z,10.60
2018-12-11T18:37:57.781Z,8.77
2018-12-11T18:40:36.318Z,8.85
2018-12-11T18:43:05.937Z,6.87
2018-12-11T18:45:35.242Z,5.67
2018-12-11T18:48:13.112Z,6.70
2018-12-11T18:50:42.059Z,7.43
2018-12-11T18:53:11.038Z,7.67
2018-12-11T18:55:39.949Z,9.07
2018-12-11T18:58:08.944Z,7.77
2018-12-11T19:00:37.880Z,9.27
2018-12-11T19:03:06.877Z,5.67
2018-12-11T19:05:35.777Z,4.00
2018-12-11T19:08:04.712Z,6.07
2018-12-11T19:10:33.685Z,4.50
2018-12-11T19:13:02.557Z,8.43
2018-12-11T19:15:31.574Z,10.60
2018-12-11T19:18:00.471Z,8.93
2018-12-11T19:20:29.544Z,11.13
2018-12-11T19:23:05.694Z,7.67
2018-12-11T19:25:34.582Z,7.83
2018-12-11T19:28:03.509Z,5.53
2018-12-11T19:30:32.394Z,5.80
2018-12-11T19:33:01.372Z,6.90
2018-12-11T19:35:33.174Z,3.23
2018-12-11T19:37:59.181Z,8.20
2018-12-11T19:40:28.082Z,4.73
2018-12-11T19:42:56.955Z,4.70
2018-12-11T19:45:25.930Z,5.57
2018-12-11T19:47:54.801Z,6.20
2018-12-11T19:50:23.720Z,5.20
2018-12-11T19:52:52.595Z,3.53
2018-12-11T19:55:21.504Z,4.00
2018-12-11T19:57:50.399Z,9.37
2018-12-11T20:00:19.283Z,8.07
2018-12-11T20:02:48.204Z,5.00
2018-12-11T20:05:17.186Z,7.10
2018-12-11T20:07:46.141Z,7.03
2018-12-11T20:10:15.050Z,5.47
2018-12-11T20:12:44.058Z,9.03
2018-12-11T20:15:12.921Z,4.87
2018-12-11T20:17:42.010Z,6.93
2018-12-11T20:20:24.296Z,7.83
2018-12-11T20:22:53.199Z,7.43
2018-12-11T20:25:22.456Z,10.20
2018-12-11T20:27:51.413Z,7.07
2018-12-11T20:30:20.369Z,7.70
2018-12-11T20:32:49.344Z,8.03
2018-12-11T20:35:18.251Z,7.00
2018-12-11T20:37:47.185Z,11.10
2018-12-11T20:40:16.230Z,7.23
2018-12-11T20:42:45.937Z,7.33
2018-12-11T20:45:14.851Z,9.20
2018-12-11T20:47:46.399Z,8.33
2018-12-11T20:50:15.432Z,6.63
2018-12-11T20:52:44.337Z,7.40
2018-12-11T20:55:13.259Z,6.80
2018-12-11T20:57:42.226Z,7.87
2018-12-11T21:00:11.349Z,8.03
2018-12-11T21:02:40.588Z,5.87
2018-12-11T21:05:09.461Z,8.60
2018-12-11T21:07:38.374Z,8.47
2018-12-11T21:10:09.869Z,4.93
2018-12-11T21:12:38.796Z,8.27
2018-12-11T21:15:08.420Z,5.03
2018-12-11T21:17:37.369Z,10.80
2018-12-11T21:20:07.293Z,17.00
2018-12-11T21:22:36.420Z,9.08
2018-12-11T21:25:05.461Z,11.40
2018-12-11T21:27:34.385Z,20.90
2018-12-11T21:30:03.681Z,14.87
2018-12-11T21:32:32.586Z,8.97
2018-12-11T21:35:01.483Z,9.20
2018-12-11T21:37:30.388Z,9.63
2018-12-11T21:39:59.317Z,8.43
2018-12-11T21:42:28.207Z,9.70
2018-12-11T21:44:57.150Z,7.73
2018-12-11T21:47:26.025Z,7.87
2018-12-11T21:49:54.970Z,10.83
2018-12-11T21:52:23.869Z,7.43
2018-12-11T21:54:52.802Z,8.87
2018-12-11T21:57:21.718Z,7.63
2018-12-11T21:59:50.698Z,4.80
2018-12-11T22:02:19.635Z,10.63
2018-12-11T22:04:48.522Z,13.47
2018-12-11T22:07:17.393Z,10.70
2018-12-11T22:09:47.558Z,10.53
2018-12-11T22:12:16.481Z,8.53
2018-12-11T22:14:45.390Z,6.80
2018-12-11T22:17:14.284Z,10.10
2018-12-11T22:19:43.241Z,11.13
2018-12-11T22:22:12.207Z,10.63
2018-12-11T22:24:41.110Z,14.20
2018-12-11T22:27:10.009Z,14.47
2018-12-11T22:29:38.911Z,18.03
2018-12-11T22:32:07.910Z,25.40
2018-12-11T22:34:36.790Z,16.87
2018-12-11T22:37:05.721Z,14.23
2018-12-11T22:39:34.606Z,17.27
2018-12-11T22:42:03.588Z,10.30
2018-12-11T22:44:32.488Z,11.40
2018-12-11T22:47:01.384Z,18.43
2018-12-11T22:49:30.285Z,15.27
2018-12-11T22:51:59.188Z,16.40
2018-12-11T22:54:28.125Z,22.97
2018-12-11T22:56:57.021Z,18.93
2018-12-11T22:59:25.928Z,24.00
2018-12-11T23:01:54.832Z,25.43
2018-12-11T23:04:23.750Z,35.10
2018-12-11T23:06:52.640Z,30.83
2018-12-11T23:09:21.513Z,30.70
2018-12-11T23:11:50.467Z,42.90
2018-12-11T23:14:19.340Z,31.60
2018-12-11T23:16:48.274Z,30.27
2018-12-11T23:19:17.154Z,20.63
2018-12-11T23:21:46.090Z,33.47
2018-12-11T23:24:14.954Z,23.43
2018-12-11T23:26:43.859Z,25.77
2018-12-11T23:29:12.747Z,30.67
2018-12-11T23:31:41.681Z,25.93
2018-12-11T23:34:11.330Z,23.97
2018-12-11T23:36:39.478Z,24.72
2018-12-11T23:39:08.398Z,56.70
2018-12-11T23:41:37.293Z,26.13
2018-12-11T23:44:06.225Z,25.60
2018-12-11T23:46:35.191Z,22.00
2018-12-11T23:49:04.055Z,30.40
2018-12-11T23:51:32.975Z,32.27
2018-12-11T23:54:01.866Z,67.17
2018-12-11T23:56:30.751Z,32.97
2018-12-11T23:58:59.652Z,22.37
